Terminal Aerodrome Forecast
Issued by NWS

Home | Current Version | Previous Version | Text Only | Print | Product List | Glossary On
Versions: 1 2 3 4 5 6 7 8 9 10 11 12 13 14 15 16 17
000
FTUS43 KEAX 261700
TAFMKC
TAF
KMKC 261728Z 2618/2718 08012KT P6SM SCT025 BKN035
      TEMPO 2618/2619 BKN025
     FM261930 08013KT P6SM FEW035
     FM262300 06007KT P6SM SKC=

USA.gov is the U.S. government's official web portal to all federal, state and local government web resources and services.